Isla Saona, Dominican Republic
Current Conditions -  °F | °C
As of 9:00 PM on Thursday 18 Dec 2014 (Local Time) from MDPC Reporting Station
Scattered Clouds Scattered Clouds  
Wind Chill: 75°   Ceiling: Unl
Heat Index: 75°   Visibility: 6mi
Dew Point: 66°   Wind: 9mph
Humidity: 73%   Direction: 60°ENE
Pressure: 30"   Gusts: NA
Location:  18.09°N, 67.89°W
Report Text: MDPC 190100Z 06008KT 9999 SCT028 24/19 Q1016 NOSIG
Loading
Personal Weather Stations






























Interactive Weather Map New forecast layout! Learn more

10-Day Weather Forecast

Advertisements
Track Severe Weather on mobile